Kathryn, ND (58049)

1:36 AM CDT on August 02, 2014 (GMT -0500)
Valley City (KBAC) Elev 1401 ft | 46.94 °N, 98.02 °W | Change Station

Current weather conditions updated 1 minute ago

Partly Cloudy
Partly Cloudy
63 °F
Feels Like 63 °F
N
0
Wind Variable Wind from North

Today is forecast to be Warmer than yesterday. Partly cloudy with a stray thunderstorm.

Today
High -- | Low -- °F
--% Chance of Precip.
Yesterday
High -- | Low -- °F
Precip. -- in
6:13 AM 9:02 PM
Waxing Crescent, 33% visible
Pressure 30.11 in
Visibility 10.0 miles
Clouds Few 5000 ft
Dew Point 61 °F
Humidity 94%
Rainfall 0.00 in
Snow Depth Not available.
UV 0 out of 12
Pollen 8.00 out of 12
Air Quality Not available.
Flu Activity Not available.
METAR KBAC 020635Z AUTO 00000KT 10SM FEW050 17/16 A3011 RMK AO2

More Conditions Fewer Conditions

Pressure 30.11 in
Visibility 10.0 miles
Clouds Few 5000 ft
Dew Point 61 °F
Humidity 94%
Rainfall 0.00 in
Snow Depth Not available.
UV 0 out of 12
Pollen 8.00 out of 12
Air Quality Not available.
Flu Activity Not available.
METAR KBAC 020635Z AUTO 00000KT 10SM FEW050 17/16 A3011 RMK AO2

More Conditions Fewer Conditions

10-Day Weather Forecast

Almanac

Astronomy

Aug. 02, 2014 Rise Set
Actual Time 6:13 AM CDT 9:02 PM CDT
Civil Twilight 5:38 AM CDT 9:36 PM CDT
Nautical Twilight 4:53 AM CDT 10:21 PM CDT
Astronomical Twilight 4:00 AM CDT 11:13 PM CDT
Moon 1:03 PM CDT 11:53 PM CDT
Length of Visible Light 15h 58m
Length of Day
14h 48m
Tomorrow will be 2m 38s shorter.
Waxing Crescent, 33% of the Moon is Illuminated
Today
Waxing Crescent
Aug 3
First Quarter
Aug 10
Full
Aug 17
Last Quarter
Aug 25
New

Today's Extremes

State Highs State Lows

Community

WunderPhotos

Upload Photos

1,739,830 photos uploaded!

Nearby

Snow Depth

Station Depth Elevation
No new snow has been reported.

Earthquake Activity

City Distance Mag. Time & Date
No recent earthquake activity has been reported nearby.
Minimum magnitude displayed is 2.5.

Coastal Water Temperatures

Place Temperature
No Stations Reporting

Nearby Weather Stations

Station Location Temp. Dew Point Humidity Wind Precip. Elev Updated Type
Valley City State University, Valley City, ND 62.7 °F - 89% SW  at  0.0 mph 0.00 in / hr 1220 ft 1:31 AM CDT Normal

Show More Stations Show Fewer Stations